Huntsville, Kentucky
Current Conditions -  °F | °C
As of 5:53 AM on Monday 26 Jan 2015 (Local Time) from KBWG Reporting Station
Overcast Overcast  
Wind Chill: 22°   Ceiling: 1200
Heat Index: 31°   Visibility: 10mi
Dew Point: 25°   Wind: 12mph
Humidity: 79%   Direction: 310°NW
Pressure: 29.92"   Gusts: 20mph
Location:  37.16°N, 86.88°W
Report Text: KBWG 261153Z AUTO 31010G17KT 10SM OVC012 M01/M04 A2992 RMK AO2 SLP132 60001 70018 T10061039 10050 21006 53027
Loading
Personal Weather Stations






























Interactive Weather Map New forecast layout! Learn more

10-Day Weather Forecast

Advertisements
Track Severe Weather on mobile